createdAt,value
2017-03-27T00:00:03.129Z,3.91
2017-03-27T00:15:02.740Z,3.83
2017-03-27T00:30:02.883Z,3.72
2017-03-27T00:45:02.610Z,3.56
2017-03-27T01:00:02.846Z,3.4
2017-03-27T01:15:02.965Z,3.27
2017-03-27T01:30:03.015Z,3.16
2017-03-27T01:45:02.521Z,3.09
2017-03-27T02:00:03.338Z,2.91
2017-03-27T02:15:02.720Z,2.74
2017-03-27T02:30:02.753Z,2.64
2017-03-27T02:45:03.206Z,2.53
2017-03-27T03:00:03.030Z,2.32
2017-03-27T03:15:02.802Z,2.2
2017-03-27T03:30:02.816Z,2.23
2017-03-27T03:45:02.694Z,2.21
2017-03-27T04:00:02.613Z,2.12
2017-03-27T04:15:02.685Z,2.07
2017-03-27T04:30:02.659Z,2
2017-03-27T04:45:02.833Z,1.93
2017-03-27T05:00:03.302Z,1.88
2017-03-27T05:15:02.339Z,1.93
2017-03-27T05:30:03.131Z,1.98
2017-03-27T05:45:03.056Z,2.16
2017-03-27T06:00:02.689Z,2.41
2017-03-27T06:15:02.946Z,2.62
2017-03-27T06:30:02.906Z,2.98
2017-03-27T06:45:02.636Z,3.45
2017-03-27T07:00:02.272Z,4.07
2017-03-27T07:15:03.088Z,4.58
2017-03-27T07:30:02.285Z,5.28
2017-03-27T07:45:02.854Z,5.92
2017-03-27T08:00:02.515Z,6.45
2017-03-27T08:15:02.567Z,7.05
2017-03-27T08:30:02.529Z,7.52
2017-03-27T08:45:02.940Z,8.01
2017-03-27T09:00:02.616Z,8.59
2017-03-27T09:15:02.724Z,9.32
2017-03-27T09:30:03.027Z,11.77
2017-03-27T09:45:02.631Z,19.36
2017-03-27T10:00:03.214Z,21.24
2017-03-27T10:15:02.626Z,22.33
2017-03-27T10:30:02.507Z,22.7
2017-03-27T10:45:03.134Z,21.83
2017-03-27T11:00:02.751Z,21.58
2017-03-27T11:15:02.258Z,20.53
2017-03-27T11:30:02.305Z,21.03
2017-03-27T11:45:03.016Z,21.81
2017-03-27T12:00:02.662Z,21.42
2017-03-27T12:15:02.701Z,21.59
2017-03-27T12:30:02.547Z,20.98
2017-03-27T12:45:03.225Z,20.73
2017-03-27T13:00:02.851Z,20.16
2017-03-27T13:15:02.963Z,19.58
2017-03-27T13:30:03.084Z,18.82
2017-03-27T13:45:02.682Z,18.65
2017-03-27T14:00:02.299Z,18.57
2017-03-27T14:15:02.964Z,18.42
2017-03-27T14:30:02.348Z,18.44
2017-03-27T14:45:02.289Z,18.5
2017-03-27T15:00:02.958Z,18.4
2017-03-27T15:15:02.515Z,18.13
2017-03-27T15:30:02.337Z,17.92
2017-03-27T15:45:02.926Z,17.62
2017-03-27T16:00:02.539Z,17.99
2017-03-27T16:15:03.004Z,17.94
2017-03-27T16:30:03.012Z,17.13
2017-03-27T16:45:03.025Z,16.48
2017-03-27T17:00:02.950Z,15.78
2017-03-27T17:15:02.993Z,15.07
2017-03-27T17:30:03.034Z,14.36
2017-03-27T17:45:02.978Z,13.65
2017-03-27T18:00:02.986Z,12.81
2017-03-27T19:00:09.940Z,10.69
2017-03-27T19:30:04.867Z,10.2
2017-03-27T19:45:02.824Z,9.86
2017-03-27T20:00:03.131Z,9.57
2017-03-27T20:15:03.210Z,9.39
2017-03-27T20:30:03.101Z,9.15
2017-03-27T20:45:02.765Z,9.01
2017-03-27T21:00:02.431Z,8.98
2017-03-27T21:15:03.019Z,8.74
2017-03-27T21:30:03.163Z,8.29
2017-03-27T21:45:03.057Z,7.93
2017-03-27T22:00:02.938Z,7.53
2017-03-27T22:15:03.349Z,7.18
2017-03-27T22:30:02.627Z,6.95
2017-03-27T22:45:02.717Z,6.97
2017-03-27T23:00:02.254Z,7.23
2017-03-27T23:15:02.543Z,7.25
2017-03-27T23:30:02.549Z,7.33
2017-03-27T23:45:03.236Z,7.14
